createdAt,value
2022-12-06T00:01:07.816Z,8.38
2022-12-06T00:03:35.772Z,8.43
2022-12-06T00:06:12.056Z,8.68
2022-12-06T00:08:39.839Z,8.23
2022-12-06T00:11:10.035Z,8.35
2022-12-06T00:13:37.804Z,8.55
2022-12-06T00:16:09.920Z,7.70
2022-12-06T00:18:38.006Z,8.25
2022-12-06T00:21:13.679Z,8.73
2022-12-06T00:23:43.195Z,7.97
2022-12-06T00:26:09.895Z,8.40
2022-12-06T00:28:37.248Z,8.43
2022-12-06T00:31:07.150Z,8.65
2022-12-06T00:33:35.537Z,8.35
2022-12-06T00:36:04.932Z,8.18
2022-12-06T00:38:31.820Z,8.40
2022-12-06T00:41:00.136Z,8.02
2022-12-06T00:43:27.493Z,9.73
2022-12-06T00:45:54.019Z,8.95
2022-12-06T00:48:20.915Z,8.60
2022-12-06T00:50:47.689Z,8.98
2022-12-06T00:53:14.357Z,9.63
2022-12-06T00:55:40.884Z,9.90
2022-12-06T00:58:07.352Z,10.23
2022-12-06T01:00:34.027Z,8.75
2022-12-06T01:03:00.914Z,9.18
2022-12-06T01:05:27.794Z,8.73
2022-12-06T01:07:54.676Z,9.07
2022-12-06T01:10:21.640Z,9.15
2022-12-06T01:12:48.062Z,9.00
2022-12-06T01:15:14.475Z,9.52
2022-12-06T01:17:41.010Z,9.20
2022-12-06T01:20:08.270Z,8.75
2022-12-06T01:22:34.804Z,9.25
2022-12-06T01:25:01.252Z,10.13
2022-12-06T01:27:27.739Z,9.95
2022-12-06T01:29:54.273Z,9.32
2022-12-06T01:32:20.870Z,9.65
2022-12-06T01:34:51.965Z,9.57
2022-12-06T01:37:19.000Z,9.73
2022-12-06T01:39:45.444Z,10.00
2022-12-06T01:42:13.260Z,9.55
2022-12-06T01:44:46.462Z,9.88
2022-12-06T01:47:17.903Z,9.95
2022-12-06T01:49:49.169Z,9.40
2022-12-06T01:52:18.124Z,9.65
2022-12-06T01:54:44.971Z,10.35
2022-12-06T01:57:14.349Z,10.13
2022-12-06T01:59:41.253Z,9.63
2022-12-06T02:02:08.482Z,9.07
2022-12-06T02:04:36.128Z,9.27
2022-12-06T02:07:03.467Z,10.48
2022-12-06T02:09:30.838Z,10.43
2022-12-06T02:11:57.442Z,10.20
2022-12-06T02:14:29.744Z,9.65
2022-12-06T02:17:21.080Z,9.23
2022-12-06T02:20:32.659Z,9.88
2022-12-06T02:23:16.974Z,9.55
2022-12-06T02:26:01.881Z,9.98
2022-12-06T02:28:40.457Z,10.50
2022-12-06T02:31:19.066Z,8.70
2022-12-06T02:33:59.410Z,10.05
2022-12-06T02:36:50.118Z,9.50
2022-12-06T02:39:27.345Z,9.38
2022-12-06T02:42:17.367Z,9.48
2022-12-06T02:44:50.014Z,9.45
2022-12-06T02:47:20.626Z,9.32
2022-12-06T02:49:50.240Z,9.02
2022-12-06T02:52:21.573Z,9.90
2022-12-06T02:54:49.361Z,10.20
2022-12-06T02:57:16.058Z,9.98
2022-12-06T02:59:54.848Z,9.32
2022-12-06T03:02:22.809Z,10.10
2022-12-06T03:05:09.488Z,10.60
2022-12-06T03:07:41.136Z,9.98
2022-12-06T03:10:13.526Z,10.27
2022-12-06T03:12:53.429Z,9.55
2022-12-06T03:15:38.705Z,10.10
2022-12-06T03:18:22.607Z,10.10
2022-12-06T03:20:54.020Z,10.05
2022-12-06T03:23:26.999Z,9.75
2022-12-06T03:25:57.736Z,10.40
2022-12-06T03:28:24.371Z,11.02
2022-12-06T03:30:54.177Z,10.98
2022-12-06T03:33:24.554Z,9.48
2022-12-06T03:35:53.505Z,10.23
2022-12-06T03:38:53.786Z,9.70
2022-12-06T03:41:25.810Z,10.30
2022-12-06T03:43:52.632Z,10.80
2022-12-06T03:46:27.844Z,11.50
2022-12-06T03:49:02.543Z,11.38
2022-12-06T03:51:31.290Z,10.48
2022-12-06T03:56:26.369Z,11.15
2022-12-06T03:58:52.785Z,10.30
2022-12-06T04:01:19.380Z,10.68
2022-12-06T04:03:46.010Z,10.02
2022-12-06T04:06:12.875Z,10.52
2022-12-06T04:08:39.662Z,10.65
2022-12-06T04:11:06.187Z,11.05
2022-12-06T04:13:33.002Z,10.93
2022-12-06T04:16:01.173Z,10.93
2022-12-06T04:18:28.281Z,10.80
2022-12-06T04:21:13.497Z,10.45
2022-12-06T04:23:42.199Z,11.23
2022-12-06T04:28:55.298Z,10.65
2022-12-06T04:31:40.538Z,11.50
2022-12-06T04:34:26.282Z,10.98
2022-12-06T04:37:11.647Z,10.95
2022-12-06T04:39:38.186Z,10.98
2022-12-06T04:42:23.661Z,10.68
2022-12-06T04:44:50.088Z,10.77
2022-12-06T04:47:16.842Z,11.48
2022-12-06T04:49:43.421Z,10.10
2022-12-06T04:52:10.957Z,10.15
2022-12-06T04:54:37.536Z,10.95
2022-12-06T04:57:11.312Z,11.40
2022-12-06T04:59:39.685Z,11.18
2022-12-06T05:02:08.492Z,13.00
2022-12-06T05:04:34.942Z,13.95
2022-12-06T05:07:01.946Z,12.63
2022-12-06T05:09:29.884Z,12.10
2022-12-06T05:11:56.794Z,13.05
2022-12-06T05:14:23.378Z,14.02
2022-12-06T05:16:50.179Z,13.27
2022-12-06T05:19:17.017Z,13.10
2022-12-06T05:21:43.829Z,12.52
2022-12-06T05:24:10.436Z,12.15
2022-12-06T05:26:37.024Z,12.20
2022-12-06T05:29:03.909Z,12.07
2022-12-06T05:31:30.521Z,12.02
2022-12-06T05:33:57.016Z,12.43
2022-12-06T05:36:26.726Z,11.75
2022-12-06T05:38:53.864Z,12.90
2022-12-06T05:41:22.641Z,12.30
2022-12-06T05:46:16.417Z,11.23
2022-12-06T05:48:42.879Z,12.60
2022-12-06T05:51:09.448Z,12.07
2022-12-06T05:53:36.105Z,12.70
2022-12-06T05:56:07.619Z,11.70
2022-12-06T05:58:34.950Z,11.98
2022-12-06T06:01:01.905Z,12.05
2022-12-06T06:03:28.597Z,11.93
2022-12-06T06:05:58.628Z,12.13
2022-12-06T06:08:26.463Z,13.25
2022-12-06T06:10:53.568Z,13.10
2022-12-06T06:13:20.820Z,13.57
2022-12-06T06:15:49.185Z,13.05
2022-12-06T06:18:16.655Z,12.20
2022-12-06T06:20:49.137Z,12.15
2022-12-06T06:23:15.642Z,11.77
2022-12-06T06:25:42.314Z,13.60
2022-12-06T06:28:08.896Z,12.48
2022-12-06T06:30:35.451Z,13.93
2022-12-06T06:33:02.090Z,12.65
2022-12-06T06:35:29.376Z,13.60
2022-12-06T06:37:56.007Z,13.85
2022-12-06T06:40:22.733Z,13.20
2022-12-06T06:42:49.191Z,12.20
2022-12-06T06:45:15.669Z,12.90
2022-12-06T06:47:42.322Z,13.73
2022-12-06T06:50:09.172Z,13.50
2022-12-06T06:52:35.787Z,12.68
2022-12-06T06:55:02.279Z,13.40
2022-12-06T06:57:29.014Z,12.75
2022-12-06T06:59:56.266Z,12.13
2022-12-06T07:02:23.270Z,13.07
2022-12-06T07:04:51.764Z,13.10
2022-12-06T07:07:21.140Z,14.05
2022-12-06T07:09:48.352Z,12.40
2022-12-06T07:12:15.526Z,12.50
2022-12-06T07:14:42.096Z,13.15
2022-12-06T07:17:08.839Z,12.32
2022-12-06T07:19:35.344Z,13.20
2022-12-06T07:22:01.921Z,13.45
2022-12-06T07:24:28.525Z,13.55
2022-12-06T07:26:56.726Z,14.52
2022-12-06T07:29:23.165Z,13.95
2022-12-06T07:31:49.687Z,13.13
2022-12-06T07:34:16.597Z,13.25
2022-12-06T07:36:43.124Z,13.50
2022-12-06T07:39:14.495Z,12.90
2022-12-06T07:42:00.832Z,12.25
2022-12-06T07:45:01.561Z,13.20
2022-12-06T07:47:37.926Z,13.93
2022-12-06T07:50:09.488Z,14.80
2022-12-06T07:52:38.571Z,13.48
2022-12-06T07:55:06.187Z,12.35
2022-12-06T07:57:34.539Z,12.60
2022-12-06T08:00:07.495Z,12.43
2022-12-06T08:02:38.440Z,13.38
2022-12-06T08:05:06.100Z,14.20
2022-12-06T08:07:32.694Z,13.65
2022-12-06T08:09:59.760Z,13.93
2022-12-06T08:12:32.218Z,13.90
2022-12-06T08:15:00.417Z,13.52
2022-12-06T08:17:29.500Z,12.38
2022-12-06T08:19:56.089Z,13.23
2022-12-06T08:22:22.823Z,13.57
2022-12-06T08:24:49.538Z,13.10
2022-12-06T08:27:15.975Z,12.60
2022-12-06T08:29:45.076Z,12.43
2022-12-06T08:32:12.130Z,13.70
2022-12-06T08:34:38.760Z,14.27
2022-12-06T08:37:05.490Z,14.77
2022-12-06T08:39:32.196Z,12.93
2022-12-06T08:41:59.132Z,12.52
2022-12-06T08:44:28.222Z,13.50
2022-12-06T08:46:55.580Z,11.85
2022-12-06T08:49:24.065Z,12.77
2022-12-06T08:51:51.058Z,12.93
2022-12-06T08:54:20.971Z,11.52
2022-12-06T08:56:48.433Z,12.63
2022-12-06T08:59:15.115Z,13.75
2022-12-06T09:01:41.814Z,13.82
2022-12-06T09:04:10.634Z,12.52
2022-12-06T09:09:09.279Z,12.15
2022-12-06T09:11:37.149Z,12.82
2022-12-06T09:14:03.831Z,12.73
2022-12-06T09:16:30.806Z,14.43
2022-12-06T09:18:58.704Z,12.45
2022-12-06T09:21:30.578Z,12.85
2022-12-06T09:23:58.188Z,13.35
2022-12-06T09:26:25.553Z,12.38
2022-12-06T09:28:54.496Z,13.13
2022-12-06T09:31:21.565Z,12.82
2022-12-06T09:33:48.881Z,13.02
2022-12-06T09:36:23.407Z,12.38
2022-12-06T09:38:59.558Z,11.98
2022-12-06T09:41:47.259Z,10.52
2022-12-06T09:44:50.203Z,10.68
2022-12-06T09:47:25.990Z,10.00
2022-12-06T09:50:17.292Z,10.68
2022-12-06T09:52:58.609Z,10.88
2022-12-06T09:55:40.752Z,10.90
2022-12-06T09:58:38.418Z,10.90
2022-12-06T10:01:17.952Z,12.02
2022-12-06T10:03:58.960Z,10.25
2022-12-06T10:06:34.613Z,9.15
2022-12-06T10:09:07.302Z,9.82
2022-12-06T10:11:56.832Z,9.13
2022-12-06T10:14:58.746Z,8.90
2022-12-06T10:17:41.698Z,9.15
2022-12-06T10:20:36.688Z,8.18
2022-12-06T10:23:12.385Z,9.68
2022-12-06T10:25:54.115Z,8.18
2022-12-06T10:30:59.863Z,8.25
2022-12-06T10:33:32.788Z,8.75
2022-12-06T10:36:02.221Z,8.23
2022-12-06T10:38:55.472Z,7.22
2022-12-06T10:41:34.087Z,7.53
2022-12-06T10:44:14.654Z,6.75
2022-12-06T10:47:04.301Z,7.10
2022-12-06T10:49:37.484Z,6.00
2022-12-06T10:52:28.108Z,6.70
2022-12-06T10:55:07.210Z,6.65
2022-12-06T10:57:41.487Z,6.03
2022-12-06T11:00:23.072Z,6.18
2022-12-06T11:05:36.082Z,5.75
2022-12-06T11:08:16.852Z,6.05
2022-12-06T11:10:46.409Z,6.03
2022-12-06T11:13:26.653Z,4.95
2022-12-06T11:16:14.921Z,5.15
2022-12-06T11:18:41.898Z,5.18
2022-12-06T11:21:34.471Z,5.43
2022-12-06T11:24:21.297Z,5.00
2022-12-06T11:26:47.879Z,5.53
2022-12-06T11:29:16.442Z,4.95
2022-12-06T11:31:48.305Z,5.38
2022-12-06T11:34:29.080Z,5.43
2022-12-06T11:37:00.350Z,6.18
2022-12-06T11:39:28.833Z,5.20
2022-12-06T11:41:58.340Z,5.68
2022-12-06T11:44:36.167Z,5.28
2022-12-06T11:47:03.378Z,5.70
2022-12-06T11:49:35.076Z,5.13
2022-12-06T11:52:07.887Z,5.00
2022-12-06T11:54:41.453Z,4.88
2022-12-06T11:57:23.071Z,4.75
2022-12-06T12:00:11.142Z,4.97
2022-12-06T12:02:42.744Z,4.85
2022-12-06T12:07:38.972Z,4.60
2022-12-06T12:10:34.188Z,4.25
2022-12-06T12:13:31.687Z,4.13
2022-12-06T12:16:01.725Z,4.55
2022-12-06T12:18:36.693Z,4.45
2022-12-06T12:21:06.468Z,4.88
2022-12-06T12:23:42.376Z,4.47
2022-12-06T12:26:21.374Z,4.68
2022-12-06T12:29:08.078Z,15.20
2022-12-06T12:31:48.000Z,8.05
2022-12-06T12:34:21.828Z,8.40
2022-12-06T12:36:50.643Z,5.95
2022-12-06T12:39:28.551Z,4.45
2022-12-06T12:41:55.181Z,4.88
2022-12-06T12:44:38.689Z,3.63
2022-12-06T12:47:24.004Z,4.22
2022-12-06T12:50:12.863Z,3.90
2022-12-06T12:52:41.607Z,3.60
2022-12-06T12:55:23.620Z,3.97
2022-12-06T12:57:56.664Z,3.50
2022-12-06T13:00:45.114Z,3.22
2022-12-06T13:03:50.228Z,3.58
2022-12-06T13:06:28.454Z,3.50
2022-12-06T13:08:59.163Z,3.85
2022-12-06T13:11:26.018Z,3.10
2022-12-06T13:13:55.313Z,3.13
2022-12-06T13:16:28.525Z,3.60
2022-12-06T13:18:59.256Z,3.13
2022-12-06T13:21:36.533Z,3.05
2022-12-06T13:24:14.845Z,3.95
2022-12-06T13:26:53.899Z,3.08
2022-12-06T13:29:44.328Z,3.30
2022-12-06T13:32:22.425Z,2.95
2022-12-06T13:34:53.393Z,3.00
2022-12-06T13:37:29.222Z,3.00
2022-12-06T13:39:56.430Z,2.97
2022-12-06T13:42:43.052Z,3.00
2022-12-06T13:45:28.060Z,2.97
2022-12-06T13:47:54.475Z,3.13
2022-12-06T13:50:21.019Z,3.20
2022-12-06T13:52:47.432Z,3.78
2022-12-06T13:55:26.275Z,3.35
2022-12-06T13:57:59.614Z,3.22
2022-12-06T14:00:29.541Z,3.38
2022-12-06T14:02:58.438Z,2.95
2022-12-06T14:06:15.879Z,3.42
2022-12-06T14:08:46.312Z,3.00
2022-12-06T14:11:12.960Z,3.03
2022-12-06T14:13:41.362Z,2.65
2022-12-06T14:16:10.317Z,2.85
2022-12-06T14:18:40.598Z,3.22
2022-12-06T14:21:20.746Z,2.65
2022-12-06T14:23:49.311Z,2.42
2022-12-06T14:26:32.415Z,2.55
2022-12-06T14:29:00.584Z,2.55
2022-12-06T14:31:38.908Z,2.40
2022-12-06T14:34:06.116Z,2.58
2022-12-06T14:36:39.229Z,2.33
2022-12-06T14:39:17.984Z,2.42
2022-12-06T14:42:30.211Z,2.60
2022-12-06T14:45:01.981Z,2.33
2022-12-06T14:47:31.261Z,2.85
2022-12-06T14:50:20.057Z,3.15
2022-12-06T14:53:34.171Z,3.40
2022-12-06T14:56:03.967Z,3.75
2022-12-06T14:58:35.302Z,3.03
2022-12-06T15:01:12.071Z,3.63
2022-12-06T15:03:39.309Z,3.30
2022-12-06T15:06:21.087Z,3.10
2022-12-06T15:11:59.214Z,2.60
2022-12-06T15:14:35.322Z,2.92
2022-12-06T15:17:06.576Z,2.88
2022-12-06T15:19:36.185Z,2.42
2022-12-06T15:22:04.056Z,2.90
2022-12-06T15:24:31.298Z,3.47
2022-12-06T15:26:57.774Z,3.13
2022-12-06T15:29:24.326Z,2.70
2022-12-06T15:31:54.116Z,3.10
2022-12-06T15:34:25.086Z,3.30
2022-12-06T15:37:08.927Z,3.30
2022-12-06T15:39:39.925Z,2.97
2022-12-06T15:42:27.531Z,3.05
2022-12-06T15:44:55.245Z,3.25
2022-12-06T15:47:21.766Z,2.70
2022-12-06T15:49:50.956Z,3.30
2022-12-06T15:52:23.204Z,3.10
2022-12-06T15:54:50.951Z,2.63
2022-12-06T15:57:17.707Z,3.10
2022-12-06T15:59:44.356Z,3.40
2022-12-06T16:02:18.584Z,3.20
2022-12-06T16:04:45.953Z,3.60
2022-12-06T16:07:18.273Z,4.00
2022-12-06T16:09:44.808Z,4.50
2022-12-06T16:12:11.373Z,4.20
2022-12-06T16:14:37.821Z,3.97
2022-12-06T16:17:04.419Z,4.40
2022-12-06T16:19:50.940Z,3.90
2022-12-06T16:22:17.751Z,3.92
2022-12-06T16:24:47.133Z,3.30
2022-12-06T16:27:15.970Z,3.65
2022-12-06T16:29:42.580Z,5.18
2022-12-06T16:32:09.210Z,4.85
2022-12-06T16:34:35.670Z,5.40
2022-12-06T16:37:05.002Z,6.78
2022-12-06T16:39:33.957Z,5.45
2022-12-06T16:42:01.454Z,5.78
2022-12-06T16:44:28.337Z,5.10
2022-12-06T16:46:55.164Z,5.38
2022-12-06T16:52:11.285Z,4.80
2022-12-06T16:54:41.013Z,4.97
2022-12-06T16:57:07.985Z,5.13
2022-12-06T16:59:35.123Z,5.50
2022-12-06T17:02:01.698Z,5.63
2022-12-06T17:04:30.660Z,5.47
2022-12-06T17:06:57.280Z,5.45
2022-12-06T17:09:23.810Z,5.15
2022-12-06T17:12:02.809Z,4.72
2022-12-06T17:14:30.132Z,4.40
2022-12-06T17:16:59.158Z,4.40
2022-12-06T17:19:27.927Z,4.55
2022-12-06T17:21:54.717Z,5.20
2022-12-06T17:24:22.206Z,4.88
2022-12-06T17:26:48.964Z,4.75
2022-12-06T17:29:15.750Z,4.82
2022-12-06T17:31:42.645Z,4.90
2022-12-06T17:34:11.845Z,5.57
2022-12-06T17:36:38.364Z,4.80
2022-12-06T17:39:09.575Z,4.88
2022-12-06T17:41:55.212Z,4.78
2022-12-06T17:44:21.787Z,5.72
2022-12-06T17:46:48.290Z,4.22
2022-12-06T17:49:18.321Z,4.78
2022-12-06T17:51:45.101Z,1.52
2022-12-06T17:54:12.477Z,2.95
2022-12-06T17:56:44.108Z,4.35
2022-12-06T17:59:16.557Z,5.00
2022-12-06T18:02:14.691Z,3.13
2022-12-06T18:04:31.253Z,3.45
2022-12-06T18:06:58.252Z,3.53
2022-12-06T18:09:24.921Z,3.13
2022-12-06T18:11:51.627Z,3.50
2022-12-06T18:14:18.048Z,3.88
2022-12-06T18:16:48.432Z,3.17
2022-12-06T18:19:18.119Z,3.47
2022-12-06T18:21:44.977Z,3.70
2022-12-06T18:24:24.706Z,3.38
2022-12-06T18:26:54.489Z,3.90
2022-12-06T18:29:24.927Z,4.22
2022-12-06T18:31:52.166Z,4.20
2022-12-06T18:34:19.336Z,4.15
2022-12-06T18:36:46.240Z,4.00
2022-12-06T18:39:16.145Z,4.72
2022-12-06T18:41:46.351Z,4.53
2022-12-06T18:44:13.417Z,4.93
2022-12-06T18:46:42.693Z,4.68
2022-12-06T18:49:11.997Z,4.55
2022-12-06T18:51:39.048Z,4.30
2022-12-06T18:54:06.697Z,4.05
2022-12-06T18:56:34.523Z,4.57
2022-12-06T18:59:03.649Z,4.60
2022-12-06T19:01:33.223Z,4.72
2022-12-06T19:04:02.828Z,4.72
2022-12-06T19:06:32.430Z,4.68
2022-12-06T19:09:01.792Z,4.55
2022-12-06T19:11:28.701Z,4.38
2022-12-06T19:14:00.393Z,4.10
2022-12-06T19:16:28.556Z,4.22
2022-12-06T19:18:57.105Z,4.78
2022-12-06T19:21:24.439Z,4.47
2022-12-06T19:23:58.872Z,4.60
2022-12-06T19:26:27.178Z,4.47
2022-12-06T19:28:54.457Z,4.35
2022-12-06T19:31:22.988Z,4.10
2022-12-06T19:36:24.851Z,4.25
2022-12-06T19:38:59.215Z,4.32
2022-12-06T19:41:26.259Z,4.05
2022-12-06T19:44:11.603Z,4.30
2022-12-06T19:46:41.237Z,4.40
2022-12-06T19:49:08.250Z,4.57
2022-12-06T19:51:36.880Z,4.47
2022-12-06T19:56:32.520Z,4.47
2022-12-06T20:01:26.969Z,4.70
2022-12-06T20:03:54.459Z,4.72
2022-12-06T20:06:24.107Z,4.85
2022-12-06T20:08:52.244Z,4.78
2022-12-06T20:11:39.932Z,4.35
2022-12-06T20:14:12.547Z,4.80
2022-12-06T20:16:40.030Z,4.43
2022-12-06T20:19:07.372Z,5.38
2022-12-06T20:21:35.086Z,4.95
2022-12-06T20:24:02.651Z,4.20
2022-12-06T20:26:31.893Z,5.00
2022-12-06T20:28:59.481Z,4.50
2022-12-06T20:31:28.702Z,4.88
2022-12-06T20:33:59.864Z,4.65
2022-12-06T20:36:27.266Z,4.50
2022-12-06T20:38:55.416Z,5.10
2022-12-06T20:41:24.691Z,4.65
2022-12-06T20:43:52.239Z,4.90
2022-12-06T20:46:23.034Z,5.57
2022-12-06T20:48:49.633Z,4.95
2022-12-06T20:51:21.705Z,4.78
2022-12-06T20:53:49.115Z,5.07
2022-12-06T20:56:18.664Z,5.18
2022-12-06T20:58:51.718Z,5.03
2022-12-06T21:01:26.711Z,4.70
2022-12-06T21:06:22.724Z,5.05
2022-12-06T21:08:49.667Z,5.25
2022-12-06T21:11:24.941Z,4.47
2022-12-06T21:13:53.598Z,5.43
2022-12-06T21:18:49.349Z,5.43
2022-12-06T21:21:24.449Z,5.35
2022-12-06T21:26:17.812Z,5.07
2022-12-06T21:28:45.104Z,4.82
2022-12-06T21:31:11.980Z,5.50
2022-12-06T21:33:38.888Z,5.05
2022-12-06T21:36:06.835Z,5.85
2022-12-06T21:38:33.389Z,6.35
2022-12-06T21:41:12.122Z,5.53
2022-12-06T21:43:39.480Z,5.78
2022-12-06T21:46:12.003Z,6.25
2022-12-06T21:48:38.977Z,5.60
2022-12-06T21:51:08.817Z,5.25
2022-12-06T21:53:36.159Z,6.00
2022-12-06T21:56:13.164Z,5.60
2022-12-06T21:58:39.826Z,6.00
2022-12-06T22:01:08.716Z,6.35
2022-12-06T22:03:36.091Z,6.20
2022-12-06T22:06:11.448Z,6.20
2022-12-06T22:08:39.444Z,6.75
2022-12-06T22:11:15.558Z,6.18
2022-12-06T22:13:42.151Z,5.90
2022-12-06T22:16:11.343Z,6.25
2022-12-06T22:18:45.005Z,6.25
2022-12-06T22:21:18.729Z,5.80
2022-12-06T22:23:46.618Z,6.25
2022-12-06T22:26:21.805Z,6.32
2022-12-06T22:28:48.656Z,7.13
2022-12-06T22:31:18.125Z,6.90
2022-12-06T22:33:45.849Z,6.43
2022-12-06T22:36:13.981Z,6.72
2022-12-06T22:38:40.777Z,6.40
2022-12-06T22:41:08.895Z,7.40
2022-12-06T22:43:35.943Z,6.70
2022-12-06T22:46:06.724Z,6.97
2022-12-06T22:48:33.431Z,6.50
2022-12-06T22:51:24.811Z,6.35
2022-12-06T22:53:59.617Z,6.30
2022-12-06T22:56:27.319Z,7.45
2022-12-06T22:58:58.538Z,7.00
2022-12-06T23:01:27.525Z,7.50
2022-12-06T23:03:54.672Z,7.65
2022-12-06T23:06:23.580Z,7.20
2022-12-06T23:08:50.591Z,7.25
2022-12-06T23:11:20.108Z,7.85
2022-12-06T23:13:46.585Z,7.30
2022-12-06T23:16:18.812Z,6.72
2022-12-06T23:18:46.487Z,7.10
2022-12-06T23:21:17.220Z,7.63
2022-12-06T23:23:49.070Z,7.28
2022-12-06T23:26:18.660Z,7.60
2022-12-06T23:28:45.816Z,6.60
2022-12-06T23:31:15.583Z,7.38
2022-12-06T23:33:43.090Z,7.13
2022-12-06T23:36:09.618Z,7.18
2022-12-06T23:38:36.736Z,6.82
2022-12-06T23:41:09.131Z,7.05
2022-12-06T23:43:36.566Z,6.70
2022-12-06T23:46:07.431Z,7.22
2022-12-06T23:48:35.538Z,7.82
2022-12-06T23:51:07.233Z,7.68
2022-12-06T23:53:34.600Z,6.80
2022-12-06T23:56:03.696Z,6.85
2022-12-06T23:58:30.218Z,7.85
